sensor_id;sensor_type;location;lat;lon;timestamp;temperature;humidity
12123;DHT22;6125;59.628;17.852;2023-12-07T00:00:52;-9.40;99.90
12123;DHT22;6125;59.628;17.852;2023-12-07T00:03:19;-9.30;99.90
12123;DHT22;6125;59.628;17.852;2023-12-07T00:05:46;-9.30;99.90
12123;DHT22;6125;59.628;17.852;2023-12-07T00:08:14;-9.30;99.90
12123;DHT22;6125;59.628;17.852;2023-12-07T00:10:41;-9.30;99.90
12123;DHT22;6125;59.628;17.852;2023-12-07T00:13:08;-9.30;99.90
12123;DHT22;6125;59.628;17.852;2023-12-07T00:15:37;-9.30;99.90
12123;DHT22;6125;59.628;17.852;2023-12-07T00:18:05;-9.30;99.90
12123;DHT22;6125;59.628;17.852;2023-12-07T00:20:32;-9.20;99.90
12123;DHT22;6125;59.628;17.852;2023-12-07T00:23:00;-9.20;99.90
12123;DHT22;6125;59.628;17.852;2023-12-07T00:25:29;-9.20;99.90
12123;DHT22;6125;59.628;17.852;2023-12-07T00:27:56;-9.20;99.90
12123;DHT22;6125;59.628;17.852;2023-12-07T00:30:25;-9.20;99.90
12123;DHT22;6125;59.628;17.852;2023-12-07T00:32:54;-9.20;99.90
12123;DHT22;6125;59.628;17.852;2023-12-07T00:35:22;-9.20;99.90
12123;DHT22;6125;59.628;17.852;2023-12-07T00:37:54;-9.20;99.90
12123;DHT22;6125;59.628;17.852;2023-12-07T00:40:23;-9.10;99.90
12123;DHT22;6125;59.628;17.852;2023-12-07T00:42:51;-9.20;99.90
12123;DHT22;6125;59.628;17.852;2023-12-07T00:45:18;-9.20;99.90
12123;DHT22;6125;59.628;17.852;2023-12-07T00:47:45;-9.20;99.90
12123;DHT22;6125;59.628;17.852;2023-12-07T00:50:16;-9.10;99.90
12123;DHT22;6125;59.628;17.852;2023-12-07T00:52:43;-9.10;99.90
12123;DHT22;6125;59.628;17.852;2023-12-07T00:55:11;-9.10;99.90
12123;DHT22;6125;59.628;17.852;2023-12-07T00:57:38;-9.00;99.90
12123;DHT22;6125;59.628;17.852;2023-12-07T01:00:06;-9.00;99.90
12123;DHT22;6125;59.628;17.852;2023-12-07T01:02:34;-8.90;99.90
12123;DHT22;6125;59.628;17.852;2023-12-07T01:05:01;-8.90;99.90
12123;DHT22;6125;59.628;17.852;2023-12-07T01:07:29;-8.90;99.90
12123;DHT22;6125;59.628;17.852;2023-12-07T01:09:57;-8.90;99.90
12123;DHT22;6125;59.628;17.852;2023-12-07T01:12:25;-8.90;99.90
12123;DHT22;6125;59.628;17.852;2023-12-07T01:14:52;-9.00;99.90
12123;DHT22;6125;59.628;17.852;2023-12-07T01:17:19;-8.90;99.90
12123;DHT22;6125;59.628;17.852;2023-12-07T01:19:46;-8.90;99.90
12123;DHT22;6125;59.628;17.852;2023-12-07T01:22:14;-9.00;99.90
12123;DHT22;6125;59.628;17.852;2023-12-07T01:24:42;-9.00;99.90
12123;DHT22;6125;59.628;17.852;2023-12-07T01:27:11;-9.00;99.90
12123;DHT22;6125;59.628;17.852;2023-12-07T01:29:39;-9.00;99.90
12123;DHT22;6125;59.628;17.852;2023-12-07T01:32:08;-8.90;99.90
12123;DHT22;6125;59.628;17.852;2023-12-07T01:34:35;-8.90;99.90
12123;DHT22;6125;59.628;17.852;2023-12-07T01:37:03;-8.80;99.90
12123;DHT22;6125;59.628;17.852;2023-12-07T01:39:30;-8.80;99.90
12123;DHT22;6125;59.628;17.852;2023-12-07T01:41:59;-8.70;99.90
12123;DHT22;6125;59.628;17.852;2023-12-07T01:44:26;-8.70;99.90
12123;DHT22;6125;59.628;17.852;2023-12-07T01:46:54;-8.70;99.90
12123;DHT22;6125;59.628;17.852;2023-12-07T01:49:22;-8.70;99.90
12123;DHT22;6125;59.628;17.852;2023-12-07T01:51:52;-8.70;99.90
12123;DHT22;6125;59.628;17.852;2023-12-07T01:54:19;-8.70;99.90
12123;DHT22;6125;59.628;17.852;2023-12-07T01:56:47;-8.60;99.90
12123;DHT22;6125;59.628;17.852;2023-12-07T01:59:16;-8.70;99.90
12123;DHT22;6125;59.628;17.852;2023-12-07T02:01:45;-8.70;99.90
12123;DHT22;6125;59.628;17.852;2023-12-07T02:04:13;-8.70;99.90
12123;DHT22;6125;59.628;17.852;2023-12-07T02:06:41;-8.70;99.90
12123;DHT22;6125;59.628;17.852;2023-12-07T02:09:08;-8.70;99.90
12123;DHT22;6125;59.628;17.852;2023-12-07T02:11:38;-8.70;99.90
12123;DHT22;6125;59.628;17.852;2023-12-07T02:14:05;-8.70;99.90
12123;DHT22;6125;59.628;17.852;2023-12-07T02:16:39;-8.70;99.90
12123;DHT22;6125;59.628;17.852;2023-12-07T02:19:17;-8.70;99.90
12123;DHT22;6125;59.628;17.852;2023-12-07T02:21:58;-8.70;99.90
12123;DHT22;6125;59.628;17.852;2023-12-07T02:24:27;-8.90;99.90
12123;DHT22;6125;59.628;17.852;2023-12-07T02:26:56;-8.70;99.90
12123;DHT22;6125;59.628;17.852;2023-12-07T02:29:23;-8.60;99.90
12123;DHT22;6125;59.628;17.852;2023-12-07T02:31:50;-8.60;99.90
12123;DHT22;6125;59.628;17.852;2023-12-07T02:34:18;-8.60;99.90
12123;DHT22;6125;59.628;17.852;2023-12-07T02:36:46;-8.50;99.90
12123;DHT22;6125;59.628;17.852;2023-12-07T02:39:15;-8.50;99.90
12123;DHT22;6125;59.628;17.852;2023-12-07T02:41:43;-8.40;99.90
12123;DHT22;6125;59.628;17.852;2023-12-07T02:44:14;-8.40;99.90
12123;DHT22;6125;59.628;17.852;2023-12-07T02:46:45;-8.40;99.90
12123;DHT22;6125;59.628;17.852;2023-12-07T02:49:14;-8.30;99.90
12123;DHT22;6125;59.628;17.852;2023-12-07T02:51:42;-8.30;99.90
12123;DHT22;6125;59.628;17.852;2023-12-07T02:54:09;-8.30;99.90
12123;DHT22;6125;59.628;17.852;2023-12-07T02:56:37;-8.30;99.90
12123;DHT22;6125;59.628;17.852;2023-12-07T02:59:05;-8.30;99.90
12123;DHT22;6125;59.628;17.852;2023-12-07T03:01:33;-8.30;99.90
12123;DHT22;6125;59.628;17.852;2023-12-07T03:04:02;-8.30;99.90
12123;DHT22;6125;59.628;17.852;2023-12-07T03:06:29;-8.30;99.90
12123;DHT22;6125;59.628;17.852;2023-12-07T03:08:56;-8.20;99.90
12123;DHT22;6125;59.628;17.852;2023-12-07T03:11:26;-8.20;99.90
12123;DHT22;6125;59.628;17.852;2023-12-07T03:13:54;-8.10;99.90
12123;DHT22;6125;59.628;17.852;2023-12-07T03:16:22;-8.00;99.90
12123;DHT22;6125;59.628;17.852;2023-12-07T03:18:51;-8.00;99.90
12123;DHT22;6125;59.628;17.852;2023-12-07T03:21:18;-8.00;99.90
12123;DHT22;6125;59.628;17.852;2023-12-07T03:23:45;-7.90;99.90
12123;DHT22;6125;59.628;17.852;2023-12-07T03:26:14;-7.90;99.90
12123;DHT22;6125;59.628;17.852;2023-12-07T03:28:42;-7.90;99.90
12123;DHT22;6125;59.628;17.852;2023-12-07T03:31:09;-7.90;99.90
12123;DHT22;6125;59.628;17.852;2023-12-07T03:33:36;-7.80;99.90
12123;DHT22;6125;59.628;17.852;2023-12-07T03:36:06;-7.80;99.90
12123;DHT22;6125;59.628;17.852;2023-12-07T03:38:33;-7.80;99.90
12123;DHT22;6125;59.628;17.852;2023-12-07T03:41:02;-7.70;99.90
12123;DHT22;6125;59.628;17.852;2023-12-07T03:43:31;-7.70;99.90
12123;DHT22;6125;59.628;17.852;2023-12-07T03:45:58;-7.70;99.90
12123;DHT22;6125;59.628;17.852;2023-12-07T03:48:26;-7.60;99.90
12123;DHT22;6125;59.628;17.852;2023-12-07T03:50:54;-7.60;99.90
12123;DHT22;6125;59.628;17.852;2023-12-07T03:53:23;-7.60;99.90
12123;DHT22;6125;59.628;17.852;2023-12-07T03:55:50;-7.60;99.90
12123;DHT22;6125;59.628;17.852;2023-12-07T03:58:17;-7.50;99.90
12123;DHT22;6125;59.628;17.852;2023-12-07T04:00:45;-7.50;99.90
12123;DHT22;6125;59.628;17.852;2023-12-07T04:03:12;-7.60;99.90
12123;DHT22;6125;59.628;17.852;2023-12-07T04:05:39;-7.60;99.90
12123;DHT22;6125;59.628;17.852;2023-12-07T04:08:08;-7.60;99.90
12123;DHT22;6125;59.628;17.852;2023-12-07T04:10:37;-7.50;99.90
12123;DHT22;6125;59.628;17.852;2023-12-07T04:13:04;-7.60;99.90
12123;DHT22;6125;59.628;17.852;2023-12-07T04:15:34;-7.60;99.90
12123;DHT22;6125;59.628;17.852;2023-12-07T04:18:01;-7.50;99.90
12123;DHT22;6125;59.628;17.852;2023-12-07T04:20:28;-7.50;99.90
12123;DHT22;6125;59.628;17.852;2023-12-07T04:22:55;-7.50;99.90
12123;DHT22;6125;59.628;17.852;2023-12-07T04:25:23;-7.50;99.90
12123;DHT22;6125;59.628;17.852;2023-12-07T04:27:51;-7.60;99.90
12123;DHT22;6125;59.628;17.852;2023-12-07T04:30:19;-7.60;99.90
12123;DHT22;6125;59.628;17.852;2023-12-07T04:32:46;-7.60;99.90
12123;DHT22;6125;59.628;17.852;2023-12-07T04:35:13;-7.70;99.90
12123;DHT22;6125;59.628;17.852;2023-12-07T04:37:42;-7.70;99.90
12123;DHT22;6125;59.628;17.852;2023-12-07T04:40:09;-7.80;99.90
12123;DHT22;6125;59.628;17.852;2023-12-07T04:42:37;-7.80;99.90
12123;DHT22;6125;59.628;17.852;2023-12-07T04:45:06;-7.80;99.90
12123;DHT22;6125;59.628;17.852;2023-12-07T04:47:34;-7.90;99.90
12123;DHT22;6125;59.628;17.852;2023-12-07T04:50:01;-7.90;99.90
12123;DHT22;6125;59.628;17.852;2023-12-07T04:52:28;-7.90;99.90
12123;DHT22;6125;59.628;17.852;2023-12-07T04:54:55;-7.90;99.90
12123;DHT22;6125;59.628;17.852;2023-12-07T04:57:22;-7.80;99.90
12123;DHT22;6125;59.628;17.852;2023-12-07T04:59:50;-7.80;99.90
12123;DHT22;6125;59.628;17.852;2023-12-07T05:02:19;-7.80;99.90
12123;DHT22;6125;59.628;17.852;2023-12-07T05:04:46;-7.90;99.90
12123;DHT22;6125;59.628;17.852;2023-12-07T05:07:13;-7.80;99.90
12123;DHT22;6125;59.628;17.852;2023-12-07T05:09:41;-7.80;99.90
12123;DHT22;6125;59.628;17.852;2023-12-07T05:12:08;-7.80;99.90
12123;DHT22;6125;59.628;17.852;2023-12-07T05:14:38;-7.80;99.90
12123;DHT22;6125;59.628;17.852;2023-12-07T05:17:05;-7.70;99.90
12123;DHT22;6125;59.628;17.852;2023-12-07T05:19:34;-7.70;99.90
12123;DHT22;6125;59.628;17.852;2023-12-07T05:22:01;-7.70;99.90
12123;DHT22;6125;59.628;17.852;2023-12-07T05:24:32;-7.70;99.90
12123;DHT22;6125;59.628;17.852;2023-12-07T05:27:00;-7.60;99.90
12123;DHT22;6125;59.628;17.852;2023-12-07T05:29:27;-7.60;99.90
12123;DHT22;6125;59.628;17.852;2023-12-07T05:31:54;-7.60;99.90
12123;DHT22;6125;59.628;17.852;2023-12-07T05:34:21;-7.50;99.90
12123;DHT22;6125;59.628;17.852;2023-12-07T05:36:50;-7.70;99.90
12123;DHT22;6125;59.628;17.852;2023-12-07T05:39:18;-7.70;99.90
12123;DHT22;6125;59.628;17.852;2023-12-07T05:41:48;-7.70;99.90
12123;DHT22;6125;59.628;17.852;2023-12-07T05:44:15;-7.80;99.90
12123;DHT22;6125;59.628;17.852;2023-12-07T05:46:47;-7.80;99.90
12123;DHT22;6125;59.628;17.852;2023-12-07T05:49:15;-7.80;99.90
12123;DHT22;6125;59.628;17.852;2023-12-07T05:51:42;-7.80;99.90
12123;DHT22;6125;59.628;17.852;2023-12-07T05:54:11;-7.80;99.90
12123;DHT22;6125;59.628;17.852;2023-12-07T05:56:38;-7.80;99.90
12123;DHT22;6125;59.628;17.852;2023-12-07T05:59:06;-7.80;99.90
12123;DHT22;6125;59.628;17.852;2023-12-07T06:01:33;-7.70;99.90
12123;DHT22;6125;59.628;17.852;2023-12-07T06:04:00;-7.70;99.90
12123;DHT22;6125;59.628;17.852;2023-12-07T06:06:27;-7.70;99.90
12123;DHT22;6125;59.628;17.852;2023-12-07T06:08:57;-7.70;99.90
12123;DHT22;6125;59.628;17.852;2023-12-07T06:11:28;-7.60;99.90
12123;DHT22;6125;59.628;17.852;2023-12-07T06:13:55;-7.50;99.90
12123;DHT22;6125;59.628;17.852;2023-12-07T06:16:24;-7.50;99.90
12123;DHT22;6125;59.628;17.852;2023-12-07T06:18:52;-7.40;99.90
12123;DHT22;6125;59.628;17.852;2023-12-07T06:21:19;-7.40;99.90
12123;DHT22;6125;59.628;17.852;2023-12-07T06:23:46;-7.30;99.90
12123;DHT22;6125;59.628;17.852;2023-12-07T06:26:14;-7.30;99.90
12123;DHT22;6125;59.628;17.852;2023-12-07T06:28:42;-7.30;99.90
12123;DHT22;6125;59.628;17.852;2023-12-07T06:31:10;-7.30;99.90
12123;DHT22;6125;59.628;17.852;2023-12-07T06:33:37;-7.20;99.90
12123;DHT22;6125;59.628;17.852;2023-12-07T06:36:09;-7.20;99.90
12123;DHT22;6125;59.628;17.852;2023-12-07T06:38:36;-7.20;99.90
12123;DHT22;6125;59.628;17.852;2023-12-07T06:41:04;-7.20;99.90
12123;DHT22;6125;59.628;17.852;2023-12-07T06:43:31;-7.10;99.90
12123;DHT22;6125;59.628;17.852;2023-12-07T06:46:02;-7.10;99.90
12123;DHT22;6125;59.628;17.852;2023-12-07T06:48:29;-7.10;99.90
12123;DHT22;6125;59.628;17.852;2023-12-07T06:50:56;-7.10;99.90
12123;DHT22;6125;59.628;17.852;2023-12-07T06:53:26;-7.00;99.90
12123;DHT22;6125;59.628;17.852;2023-12-07T06:55:53;-7.00;99.90
12123;DHT22;6125;59.628;17.852;2023-12-07T06:58:20;-7.00;99.90
12123;DHT22;6125;59.628;17.852;2023-12-07T07:00:47;-7.00;99.90
12123;DHT22;6125;59.628;17.852;2023-12-07T07:03:16;-6.90;99.90
12123;DHT22;6125;59.628;17.852;2023-12-07T07:05:44;-6.90;99.90
12123;DHT22;6125;59.628;17.852;2023-12-07T07:08:11;-6.80;99.90
12123;DHT22;6125;59.628;17.852;2023-12-07T07:10:38;-6.70;99.90
12123;DHT22;6125;59.628;17.852;2023-12-07T07:13:05;-6.80;99.90
12123;DHT22;6125;59.628;17.852;2023-12-07T07:15:33;-6.80;99.90
12123;DHT22;6125;59.628;17.852;2023-12-07T07:18:01;-6.70;99.90
12123;DHT22;6125;59.628;17.852;2023-12-07T07:20:29;-6.70;99.90
12123;DHT22;6125;59.628;17.852;2023-12-07T07:22:57;-6.60;99.90
12123;DHT22;6125;59.628;17.852;2023-12-07T07:25:24;-6.60;99.90
12123;DHT22;6125;59.628;17.852;2023-12-07T07:27:54;-6.60;99.90
12123;DHT22;6125;59.628;17.852;2023-12-07T07:30:21;-6.60;99.90
12123;DHT22;6125;59.628;17.852;2023-12-07T07:32:49;-6.50;99.90
12123;DHT22;6125;59.628;17.852;2023-12-07T07:35:17;-6.50;99.90
12123;DHT22;6125;59.628;17.852;2023-12-07T07:37:45;-6.40;99.90
12123;DHT22;6125;59.628;17.852;2023-12-07T07:40:13;-6.40;99.90
12123;DHT22;6125;59.628;17.852;2023-12-07T07:42:40;-6.30;99.90
12123;DHT22;6125;59.628;17.852;2023-12-07T07:45:08;-6.30;99.90
12123;DHT22;6125;59.628;17.852;2023-12-07T07:47:35;-6.30;99.90
12123;DHT22;6125;59.628;17.852;2023-12-07T07:50:03;-6.30;99.90
12123;DHT22;6125;59.628;17.852;2023-12-07T07:52:32;-6.30;99.90
12123;DHT22;6125;59.628;17.852;2023-12-07T07:55:02;-6.20;99.90
12123;DHT22;6125;59.628;17.852;2023-12-07T07:57:30;-6.20;99.90
12123;DHT22;6125;59.628;17.852;2023-12-07T07:59:57;-6.20;99.90
12123;DHT22;6125;59.628;17.852;2023-12-07T08:02:25;-6.20;99.90
12123;DHT22;6125;59.628;17.852;2023-12-07T08:04:52;-6.10;99.90
12123;DHT22;6125;59.628;17.852;2023-12-07T08:07:20;-6.10;99.90
12123;DHT22;6125;59.628;17.852;2023-12-07T08:09:47;-6.00;99.90
12123;DHT22;6125;59.628;17.852;2023-12-07T08:12:15;-6.00;99.90
12123;DHT22;6125;59.628;17.852;2023-12-07T08:14:44;-5.90;99.90
12123;DHT22;6125;59.628;17.852;2023-12-07T08:17:14;-5.80;99.90
12123;DHT22;6125;59.628;17.852;2023-12-07T08:19:42;-5.80;99.90
12123;DHT22;6125;59.628;17.852;2023-12-07T08:22:09;-5.80;99.90
12123;DHT22;6125;59.628;17.852;2023-12-07T08:24:39;-5.70;99.90
12123;DHT22;6125;59.628;17.852;2023-12-07T08:27:06;-5.70;99.90
12123;DHT22;6125;59.628;17.852;2023-12-07T08:29:37;-5.60;99.90
12123;DHT22;6125;59.628;17.852;2023-12-07T08:32:05;-5.60;99.90
12123;DHT22;6125;59.628;17.852;2023-12-07T08:34:33;-5.60;99.90
12123;DHT22;6125;59.628;17.852;2023-12-07T08:37:03;-5.50;99.90
12123;DHT22;6125;59.628;17.852;2023-12-07T08:39:31;-5.50;99.90
12123;DHT22;6125;59.628;17.852;2023-12-07T08:41:58;-5.50;99.90
12123;DHT22;6125;59.628;17.852;2023-12-07T08:44:26;-5.40;99.90
12123;DHT22;6125;59.628;17.852;2023-12-07T08:46:55;-5.40;99.90
12123;DHT22;6125;59.628;17.852;2023-12-07T08:49:22;-5.40;99.90
12123;DHT22;6125;59.628;17.852;2023-12-07T08:51:56;-5.30;99.90
12123;DHT22;6125;59.628;17.852;2023-12-07T08:54:24;-5.30;99.90
12123;DHT22;6125;59.628;17.852;2023-12-07T08:56:52;-5.30;99.90
12123;DHT22;6125;59.628;17.852;2023-12-07T08:59:19;-5.30;99.90
12123;DHT22;6125;59.628;17.852;2023-12-07T09:01:50;-5.20;99.90
12123;DHT22;6125;59.628;17.852;2023-12-07T09:04:18;-5.20;99.90
12123;DHT22;6125;59.628;17.852;2023-12-07T09:06:45;-5.20;99.90
12123;DHT22;6125;59.628;17.852;2023-12-07T09:09:14;-5.10;99.90
12123;DHT22;6125;59.628;17.852;2023-12-07T09:11:42;-5.10;99.90
12123;DHT22;6125;59.628;17.852;2023-12-07T09:14:09;-5.10;99.90
12123;DHT22;6125;59.628;17.852;2023-12-07T09:16:43;-5.10;99.90
12123;DHT22;6125;59.628;17.852;2023-12-07T09:19:13;-5.00;99.90
12123;DHT22;6125;59.628;17.852;2023-12-07T09:21:41;-5.00;99.90
12123;DHT22;6125;59.628;17.852;2023-12-07T09:24:08;-4.90;99.90
12123;DHT22;6125;59.628;17.852;2023-12-07T09:26:36;-5.00;99.90
12123;DHT22;6125;59.628;17.852;2023-12-07T09:29:10;-4.90;99.90
12123;DHT22;6125;59.628;17.852;2023-12-07T09:31:37;-4.90;99.90
12123;DHT22;6125;59.628;17.852;2023-12-07T09:34:04;-4.90;99.90
12123;DHT22;6125;59.628;17.852;2023-12-07T09:36:34;-4.80;99.90
12123;DHT22;6125;59.628;17.852;2023-12-07T09:39:02;-4.80;99.90
12123;DHT22;6125;59.628;17.852;2023-12-07T09:41:30;-4.80;99.90
12123;DHT22;6125;59.628;17.852;2023-12-07T09:43:57;-4.70;99.90
12123;DHT22;6125;59.628;17.852;2023-12-07T09:46:26;-4.70;99.90
12123;DHT22;6125;59.628;17.852;2023-12-07T09:48:53;-4.70;99.90
12123;DHT22;6125;59.628;17.852;2023-12-07T09:51:28;-4.70;99.90
12123;DHT22;6125;59.628;17.852;2023-12-07T09:53:57;-4.70;99.90
12123;DHT22;6125;59.628;17.852;2023-12-07T09:56:26;-4.60;99.90
12123;DHT22;6125;59.628;17.852;2023-12-07T09:58:55;-4.60;99.90
12123;DHT22;6125;59.628;17.852;2023-12-07T10:01:28;-4.60;99.90
12123;DHT22;6125;59.628;17.852;2023-12-07T10:04:18;-4.50;99.90
12123;DHT22;6125;59.628;17.852;2023-12-07T10:06:47;-4.50;99.90
12123;DHT22;6125;59.628;17.852;2023-12-07T10:09:15;-4.50;99.90
12123;DHT22;6125;59.628;17.852;2023-12-07T10:11:44;-4.40;99.90
12123;DHT22;6125;59.628;17.852;2023-12-07T10:14:12;-4.40;99.90
12123;DHT22;6125;59.628;17.852;2023-12-07T10:16:40;-4.30;99.90
12123;DHT22;6125;59.628;17.852;2023-12-07T10:19:18;-4.30;99.90
12123;DHT22;6125;59.628;17.852;2023-12-07T10:21:47;-4.30;99.90
12123;DHT22;6125;59.628;17.852;2023-12-07T10:24:16;-4.30;99.90
12123;DHT22;6125;59.628;17.852;2023-12-07T10:26:46;-4.20;99.90
12123;DHT22;6125;59.628;17.852;2023-12-07T10:29:14;-4.20;99.90
12123;DHT22;6125;59.628;17.852;2023-12-07T10:31:41;-4.20;99.90
12123;DHT22;6125;59.628;17.852;2023-12-07T10:34:09;-4.20;99.90
12123;DHT22;6125;59.628;17.852;2023-12-07T10:36:36;-4.10;99.90
12123;DHT22;6125;59.628;17.852;2023-12-07T10:39:04;-4.10;99.90
12123;DHT22;6125;59.628;17.852;2023-12-07T10:41:33;-4.10;99.90
12123;DHT22;6125;59.628;17.852;2023-12-07T10:44:04;-4.00;99.90
12123;DHT22;6125;59.628;17.852;2023-12-07T10:46:33;-4.00;99.90
12123;DHT22;6125;59.628;17.852;2023-12-07T10:49:04;-3.90;99.90
12123;DHT22;6125;59.628;17.852;2023-12-07T10:51:37;-3.90;99.90
12123;DHT22;6125;59.628;17.852;2023-12-07T10:54:07;-3.90;99.90
12123;DHT22;6125;59.628;17.852;2023-12-07T10:56:38;-3.80;99.90
12123;DHT22;6125;59.628;17.852;2023-12-07T10:59:10;-3.80;99.90
12123;DHT22;6125;59.628;17.852;2023-12-07T11:01:40;-3.70;99.90
12123;DHT22;6125;59.628;17.852;2023-12-07T11:04:11;-3.70;99.90
12123;DHT22;6125;59.628;17.852;2023-12-07T11:06:40;-3.70;99.90
12123;DHT22;6125;59.628;17.852;2023-12-07T11:09:19;-3.70;99.90
12123;DHT22;6125;59.628;17.852;2023-12-07T11:11:52;-3.70;99.90
12123;DHT22;6125;59.628;17.852;2023-12-07T11:14:22;-3.80;99.90
12123;DHT22;6125;59.628;17.852;2023-12-07T11:16:52;-3.50;99.90
12123;DHT22;6125;59.628;17.852;2023-12-07T11:19:47;-3.60;99.90
12123;DHT22;6125;59.628;17.852;2023-12-07T11:22:15;-3.60;99.90
12123;DHT22;6125;59.628;17.852;2023-12-07T11:25:03;-3.50;99.90
12123;DHT22;6125;59.628;17.852;2023-12-07T11:27:32;-3.50;99.90
12123;DHT22;6125;59.628;17.852;2023-12-07T11:30:04;-3.50;99.90
12123;DHT22;6125;59.628;17.852;2023-12-07T11:32:32;-3.50;99.90
12123;DHT22;6125;59.628;17.852;2023-12-07T11:35:05;-3.50;99.90
12123;DHT22;6125;59.628;17.852;2023-12-07T11:38:01;-3.50;99.90
12123;DHT22;6125;59.628;17.852;2023-12-07T11:40:29;-3.50;99.90
12123;DHT22;6125;59.628;17.852;2023-12-07T11:42:58;-3.60;99.90
12123;DHT22;6125;59.628;17.852;2023-12-07T11:45:47;-3.50;99.90
12123;DHT22;6125;59.628;17.852;2023-12-07T11:48:16;-3.40;99.90
12123;DHT22;6125;59.628;17.852;2023-12-07T11:50:56;-3.40;99.90
12123;DHT22;6125;59.628;17.852;2023-12-07T11:53:25;-3.50;99.90
12123;DHT22;6125;59.628;17.852;2023-12-07T11:55:53;-3.50;99.90
12123;DHT22;6125;59.628;17.852;2023-12-07T11:58:21;-3.50;99.90
12123;DHT22;6125;59.628;17.852;2023-12-07T12:00:52;-3.50;99.90
12123;DHT22;6125;59.628;17.852;2023-12-07T12:03:19;-3.40;99.90
12123;DHT22;6125;59.628;17.852;2023-12-07T12:05:47;-3.40;99.90
12123;DHT22;6125;59.628;17.852;2023-12-07T12:08:15;-3.40;99.90
12123;DHT22;6125;59.628;17.852;2023-12-07T12:10:42;-3.40;99.90
12123;DHT22;6125;59.628;17.852;2023-12-07T12:13:10;-3.30;99.90
12123;DHT22;6125;59.628;17.852;2023-12-07T12:15:37;-3.40;99.90
12123;DHT22;6125;59.628;17.852;2023-12-07T12:18:06;-3.30;99.90
12123;DHT22;6125;59.628;17.852;2023-12-07T12:20:34;-3.30;99.90
12123;DHT22;6125;59.628;17.852;2023-12-07T12:23:03;-3.30;99.90
12123;DHT22;6125;59.628;17.852;2023-12-07T12:25:31;-3.30;99.90
12123;DHT22;6125;59.628;17.852;2023-12-07T12:28:02;-3.20;99.90
12123;DHT22;6125;59.628;17.852;2023-12-07T12:30:30;-3.20;99.90
12123;DHT22;6125;59.628;17.852;2023-12-07T12:32:57;-3.20;99.90
12123;DHT22;6125;59.628;17.852;2023-12-07T12:35:27;-2.90;99.90
12123;DHT22;6125;59.628;17.852;2023-12-07T12:37:55;-3.20;99.90
12123;DHT22;6125;59.628;17.852;2023-12-07T12:40:27;-3.10;99.90
12123;DHT22;6125;59.628;17.852;2023-12-07T12:42:55;-3.10;99.90
12123;DHT22;6125;59.628;17.852;2023-12-07T12:45:25;-3.10;99.90
12123;DHT22;6125;59.628;17.852;2023-12-07T12:47:52;-3.10;99.90
12123;DHT22;6125;59.628;17.852;2023-12-07T12:50:36;-3.10;99.90
12123;DHT22;6125;59.628;17.852;2023-12-07T12:53:07;-3.00;99.90
12123;DHT22;6125;59.628;17.852;2023-12-07T12:55:38;-3.00;99.90
12123;DHT22;6125;59.628;17.852;2023-12-07T12:58:07;-3.00;99.90
12123;DHT22;6125;59.628;17.852;2023-12-07T13:00:34;-3.00;99.90
12123;DHT22;6125;59.628;17.852;2023-12-07T13:03:05;-3.00;99.90
12123;DHT22;6125;59.628;17.852;2023-12-07T13:05:34;-3.00;99.90
12123;DHT22;6125;59.628;17.852;2023-12-07T13:08:02;-3.00;99.90
12123;DHT22;6125;59.628;17.852;2023-12-07T13:10:30;-3.00;99.90
12123;DHT22;6125;59.628;17.852;2023-12-07T13:12:57;-3.00;99.90
12123;DHT22;6125;59.628;17.852;2023-12-07T13:15:24;-2.90;99.90
12123;DHT22;6125;59.628;17.852;2023-12-07T13:17:52;-2.80;99.90
12123;DHT22;6125;59.628;17.852;2023-12-07T13:20:20;-2.90;99.90
12123;DHT22;6125;59.628;17.852;2023-12-07T13:22:49;-2.90;99.90
12123;DHT22;6125;59.628;17.852;2023-12-07T13:25:17;-2.90;99.90
12123;DHT22;6125;59.628;17.852;2023-12-07T13:27:44;-2.90;99.90
12123;DHT22;6125;59.628;17.852;2023-12-07T13:30:12;-2.90;99.90
12123;DHT22;6125;59.628;17.852;2023-12-07T13:32:39;-2.80;99.90
12123;DHT22;6125;59.628;17.852;2023-12-07T13:35:07;-2.80;99.90
12123;DHT22;6125;59.628;17.852;2023-12-07T13:37:35;-2.80;99.90
12123;DHT22;6125;59.628;17.852;2023-12-07T13:40:05;-2.80;99.90
12123;DHT22;6125;59.628;17.852;2023-12-07T13:42:36;-2.80;99.90
12123;DHT22;6125;59.628;17.852;2023-12-07T13:45:04;-2.80;99.90
12123;DHT22;6125;59.628;17.852;2023-12-07T13:47:33;-2.70;99.90
12123;DHT22;6125;59.628;17.852;2023-12-07T13:50:06;-2.70;99.90
12123;DHT22;6125;59.628;17.852;2023-12-07T13:52:35;-2.70;99.90
12123;DHT22;6125;59.628;17.852;2023-12-07T13:55:05;-2.70;99.90
12123;DHT22;6125;59.628;17.852;2023-12-07T13:57:33;-2.70;99.90
12123;DHT22;6125;59.628;17.852;2023-12-07T14:00:00;-2.70;99.90
12123;DHT22;6125;59.628;17.852;2023-12-07T14:02:28;-2.70;99.90
12123;DHT22;6125;59.628;17.852;2023-12-07T14:04:55;-2.70;99.90
12123;DHT22;6125;59.628;17.852;2023-12-07T14:07:22;-2.70;99.90
12123;DHT22;6125;59.628;17.852;2023-12-07T14:09:51;-2.70;99.90
12123;DHT22;6125;59.628;17.852;2023-12-07T14:12:23;-2.60;99.90
12123;DHT22;6125;59.628;17.852;2023-12-07T14:14:51;-2.70;99.90
12123;DHT22;6125;59.628;17.852;2023-12-07T14:17:21;-2.60;99.90
12123;DHT22;6125;59.628;17.852;2023-12-07T14:19:51;-2.60;99.90
12123;DHT22;6125;59.628;17.852;2023-12-07T14:22:19;-2.60;99.90
12123;DHT22;6125;59.628;17.852;2023-12-07T14:24:46;-2.60;99.90
12123;DHT22;6125;59.628;17.852;2023-12-07T14:27:15;-2.60;99.90
12123;DHT22;6125;59.628;17.852;2023-12-07T14:29:44;-2.60;99.90
12123;DHT22;6125;59.628;17.852;2023-12-07T14:32:12;-2.60;99.90
12123;DHT22;6125;59.628;17.852;2023-12-07T14:34:39;-2.60;99.90
12123;DHT22;6125;59.628;17.852;2023-12-07T14:37:07;-2.60;99.90
12123;DHT22;6125;59.628;17.852;2023-12-07T14:39:35;-2.50;99.90
12123;DHT22;6125;59.628;17.852;2023-12-07T14:42:03;-2.50;99.90
12123;DHT22;6125;59.628;17.852;2023-12-07T14:44:30;-2.50;99.90
12123;DHT22;6125;59.628;17.852;2023-12-07T14:46:59;-2.50;99.90
12123;DHT22;6125;59.628;17.852;2023-12-07T14:49:26;-2.50;99.90
12123;DHT22;6125;59.628;17.852;2023-12-07T14:51:55;-2.50;99.90
12123;DHT22;6125;59.628;17.852;2023-12-07T14:54:24;-2.50;99.90
12123;DHT22;6125;59.628;17.852;2023-12-07T14:56:51;-2.50;99.90
12123;DHT22;6125;59.628;17.852;2023-12-07T14:59:19;-2.50;99.90
12123;DHT22;6125;59.628;17.852;2023-12-07T15:01:48;-2.40;99.90
12123;DHT22;6125;59.628;17.852;2023-12-07T15:04:18;-2.40;99.90
12123;DHT22;6125;59.628;17.852;2023-12-07T15:06:45;-2.40;99.90
12123;DHT22;6125;59.628;17.852;2023-12-07T15:09:13;-2.40;99.90
12123;DHT22;6125;59.628;17.852;2023-12-07T15:11:41;-2.40;99.90
12123;DHT22;6125;59.628;17.852;2023-12-07T15:14:09;-2.30;99.90
12123;DHT22;6125;59.628;17.852;2023-12-07T15:16:38;-2.40;99.90
12123;DHT22;6125;59.628;17.852;2023-12-07T15:19:06;-2.40;99.90
12123;DHT22;6125;59.628;17.852;2023-12-07T15:21:37;-2.30;99.90
12123;DHT22;6125;59.628;17.852;2023-12-07T15:24:05;-2.30;99.90
12123;DHT22;6125;59.628;17.852;2023-12-07T15:26:32;-2.30;99.90
12123;DHT22;6125;59.628;17.852;2023-12-07T15:29:00;-2.30;99.90
12123;DHT22;6125;59.628;17.852;2023-12-07T15:31:29;-2.20;99.90
12123;DHT22;6125;59.628;17.852;2023-12-07T15:33:58;-2.20;99.90
12123;DHT22;6125;59.628;17.852;2023-12-07T15:36:26;-2.20;99.90
12123;DHT22;6125;59.628;17.852;2023-12-07T15:38:57;-2.20;99.90